sensor_id;sensor_type;location;lat;lon;timestamp;P1;durP1;ratioP1;P2;durP2;ratioP2
3653;SDS011;70277;54.302;10.064;2023-09-12T00:00:37;55.13;;;31.98;;
3653;SDS011;70277;54.302;10.064;2023-09-12T00:03:03;57.40;;;33.30;;
3653;SDS011;70277;54.302;10.064;2023-09-12T00:05:30;48.72;;;31.38;;
3653;SDS011;70277;54.302;10.064;2023-09-12T00:07:56;56.70;;;32.75;;
3653;SDS011;70277;54.302;10.064;2023-09-12T00:10:23;52.17;;;32.00;;
3653;SDS011;70277;54.302;10.064;2023-09-12T00:12:49;53.65;;;33.38;;
3653;SDS011;70277;54.302;10.064;2023-09-12T00:15:16;53.05;;;32.80;;
3653;SDS011;70277;54.302;10.064;2023-09-12T00:17:42;48.13;;;30.27;;
3653;SDS011;70277;54.302;10.064;2023-09-12T00:20:09;55.45;;;31.45;;
3653;SDS011;70277;54.302;10.064;2023-09-12T00:22:36;55.20;;;30.45;;
3653;SDS011;70277;54.302;10.064;2023-09-12T00:25:02;53.78;;;32.50;;
3653;SDS011;70277;54.302;10.064;2023-09-12T00:27:29;49.13;;;30.08;;
3653;SDS011;70277;54.302;10.064;2023-09-12T00:29:56;51.28;;;33.28;;
3653;SDS011;70277;54.302;10.064;2023-09-12T00:32:22;58.78;;;31.77;;
3653;SDS011;70277;54.302;10.064;2023-09-12T00:34:49;58.25;;;31.98;;
3653;SDS011;70277;54.302;10.064;2023-09-12T00:37:15;50.50;;;32.75;;
3653;SDS011;70277;54.302;10.064;2023-09-12T00:39:42;50.80;;;30.50;;
3653;SDS011;70277;54.302;10.064;2023-09-12T00:42:08;50.30;;;30.52;;
3653;SDS011;70277;54.302;10.064;2023-09-12T00:44:35;47.90;;;29.48;;
3653;SDS011;70277;54.302;10.064;2023-09-12T00:47:01;59.17;;;32.85;;
3653;SDS011;70277;54.302;10.064;2023-09-12T00:49:29;56.22;;;31.58;;
3653;SDS011;70277;54.302;10.064;2023-09-12T00:51:57;52.53;;;31.40;;
3653;SDS011;70277;54.302;10.064;2023-09-12T00:54:24;52.35;;;29.63;;
3653;SDS011;70277;54.302;10.064;2023-09-12T00:56:51;47.90;;;29.77;;
3653;SDS011;70277;54.302;10.064;2023-09-12T00:59:18;51.38;;;28.90;;
3653;SDS011;70277;54.302;10.064;2023-09-12T01:01:45;49.30;;;28.02;;
3653;SDS011;70277;54.302;10.064;2023-09-12T01:04:12;51.80;;;28.75;;
3653;SDS011;70277;54.302;10.064;2023-09-12T01:06:58;50.70;;;29.00;;
3653;SDS011;70277;54.302;10.064;2023-09-12T01:09:25;45.97;;;27.05;;
3653;SDS011;70277;54.302;10.064;2023-09-12T01:11:52;47.63;;;28.27;;
3653;SDS011;70277;54.302;10.064;2023-09-12T01:14:18;41.08;;;25.63;;
3653;SDS011;70277;54.302;10.064;2023-09-12T01:16:45;44.08;;;27.38;;
3653;SDS011;70277;54.302;10.064;2023-09-12T01:19:11;50.90;;;27.58;;
3653;SDS011;70277;54.302;10.064;2023-09-12T01:21:47;49.00;;;28.50;;
3653;SDS011;70277;54.302;10.064;2023-09-12T01:30:33;64.22;;;29.17;;
3653;SDS011;70277;54.302;10.064;2023-09-12T01:33:01;59.80;;;27.00;;
3653;SDS011;70277;54.302;10.064;2023-09-12T01:35:29;58.20;;;28.30;;
3653;SDS011;70277;54.302;10.064;2023-09-12T01:37:55;52.90;;;29.23;;
3653;SDS011;70277;54.302;10.064;2023-09-12T01:40:25;57.35;;;29.35;;
3653;SDS011;70277;54.302;10.064;2023-09-12T01:42:58;59.30;;;28.15;;
3653;SDS011;70277;54.302;10.064;2023-09-12T01:45:26;57.15;;;29.63;;
3653;SDS011;70277;54.302;10.064;2023-09-12T01:47:53;51.40;;;27.67;;
3653;SDS011;70277;54.302;10.064;2023-09-12T01:50:21;52.55;;;26.08;;
3653;SDS011;70277;54.302;10.064;2023-09-12T01:52:48;45.22;;;26.02;;
3653;SDS011;70277;54.302;10.064;2023-09-12T01:55:15;60.13;;;26.20;;
3653;SDS011;70277;54.302;10.064;2023-09-12T01:57:44;51.08;;;26.27;;
3653;SDS011;70277;54.302;10.064;2023-09-12T02:00:10;43.08;;;24.17;;
3653;SDS011;70277;54.302;10.064;2023-09-12T02:02:38;58.97;;;27.00;;
3653;SDS011;70277;54.302;10.064;2023-09-12T02:05:13;48.67;;;26.05;;
3653;SDS011;70277;54.302;10.064;2023-09-12T02:07:44;51.58;;;26.27;;
3653;SDS011;70277;54.302;10.064;2023-09-12T02:10:12;53.67;;;26.65;;
3653;SDS011;70277;54.302;10.064;2023-09-12T02:12:39;48.65;;;24.88;;
3653;SDS011;70277;54.302;10.064;2023-09-12T02:15:06;47.58;;;25.80;;
3653;SDS011;70277;54.302;10.064;2023-09-12T02:17:33;51.22;;;25.42;;
3653;SDS011;70277;54.302;10.064;2023-09-12T02:20:00;44.90;;;24.27;;
3653;SDS011;70277;54.302;10.064;2023-09-12T02:22:26;49.85;;;24.77;;
3653;SDS011;70277;54.302;10.064;2023-09-12T02:24:53;48.80;;;24.55;;
3653;SDS011;70277;54.302;10.064;2023-09-12T02:27:19;50.10;;;24.20;;
3653;SDS011;70277;54.302;10.064;2023-09-12T02:29:46;48.75;;;24.23;;
3653;SDS011;70277;54.302;10.064;2023-09-12T02:32:12;42.95;;;23.15;;
3653;SDS011;70277;54.302;10.064;2023-09-12T02:34:38;40.63;;;22.27;;
3653;SDS011;70277;54.302;10.064;2023-09-12T02:37:05;42.28;;;21.73;;
3653;SDS011;70277;54.302;10.064;2023-09-12T02:39:31;40.42;;;21.60;;
3653;SDS011;70277;54.302;10.064;2023-09-12T02:41:58;34.20;;;19.92;;
3653;SDS011;70277;54.302;10.064;2023-09-12T02:44:24;36.17;;;19.70;;
3653;SDS011;70277;54.302;10.064;2023-09-12T02:46:51;31.48;;;19.00;;
3653;SDS011;70277;54.302;10.064;2023-09-12T02:49:17;34.53;;;19.67;;
3653;SDS011;70277;54.302;10.064;2023-09-12T02:51:44;34.05;;;17.98;;
3653;SDS011;70277;54.302;10.064;2023-09-12T02:54:11;30.48;;;17.35;;
3653;SDS011;70277;54.302;10.064;2023-09-12T02:56:38;29.27;;;17.67;;
3653;SDS011;70277;54.302;10.064;2023-09-12T02:59:04;26.73;;;17.17;;
3653;SDS011;70277;54.302;10.064;2023-09-12T03:01:31;29.70;;;17.40;;
3653;SDS011;70277;54.302;10.064;2023-09-12T03:03:58;28.05;;;16.90;;
3653;SDS011;70277;54.302;10.064;2023-09-12T03:06:24;29.45;;;18.45;;
3653;SDS011;70277;54.302;10.064;2023-09-12T03:08:51;32.90;;;18.92;;
3653;SDS011;70277;54.302;10.064;2023-09-12T03:11:18;28.52;;;17.17;;
3653;SDS011;70277;54.302;10.064;2023-09-12T03:13:44;31.90;;;18.63;;
3653;SDS011;70277;54.302;10.064;2023-09-12T03:16:11;26.35;;;17.27;;
3653;SDS011;70277;54.302;10.064;2023-09-12T03:18:38;35.78;;;18.40;;
3653;SDS011;70277;54.302;10.064;2023-09-12T03:21:05;33.90;;;18.92;;
3653;SDS011;70277;54.302;10.064;2023-09-12T03:23:32;34.75;;;20.73;;
3653;SDS011;70277;54.302;10.064;2023-09-12T03:26:02;36.40;;;20.55;;
3653;SDS011;70277;54.302;10.064;2023-09-12T03:28:30;40.42;;;21.55;;
3653;SDS011;70277;54.302;10.064;2023-09-12T03:31:03;35.13;;;20.73;;
3653;SDS011;70277;54.302;10.064;2023-09-12T03:33:34;36.92;;;21.60;;
3653;SDS011;70277;54.302;10.064;2023-09-12T03:36:01;42.20;;;20.95;;
3653;SDS011;70277;54.302;10.064;2023-09-12T03:38:27;37.85;;;21.25;;
3653;SDS011;70277;54.302;10.064;2023-09-12T03:40:54;41.58;;;21.42;;
3653;SDS011;70277;54.302;10.064;2023-09-12T03:43:20;37.95;;;20.38;;
3653;SDS011;70277;54.302;10.064;2023-09-12T03:45:47;40.53;;;20.38;;
3653;SDS011;70277;54.302;10.064;2023-09-12T03:48:13;38.20;;;21.10;;
3653;SDS011;70277;54.302;10.064;2023-09-12T03:50:40;35.53;;;21.17;;
3653;SDS011;70277;54.302;10.064;2023-09-12T03:53:06;34.00;;;20.08;;
3653;SDS011;70277;54.302;10.064;2023-09-12T03:55:33;38.88;;;20.73;;
3653;SDS011;70277;54.302;10.064;2023-09-12T03:57:59;44.08;;;22.52;;
3653;SDS011;70277;54.302;10.064;2023-09-12T04:00:26;47.45;;;22.17;;
3653;SDS011;70277;54.302;10.064;2023-09-12T04:02:52;42.08;;;22.60;;
3653;SDS011;70277;54.302;10.064;2023-09-12T04:05:19;43.30;;;22.65;;
3653;SDS011;70277;54.302;10.064;2023-09-12T04:07:45;42.05;;;22.73;;
3653;SDS011;70277;54.302;10.064;2023-09-12T04:10:12;40.58;;;22.73;;
3653;SDS011;70277;54.302;10.064;2023-09-12T04:12:38;42.03;;;22.40;;
3653;SDS011;70277;54.302;10.064;2023-09-12T04:15:05;40.17;;;22.92;;
3653;SDS011;70277;54.302;10.064;2023-09-12T04:17:32;39.75;;;22.25;;
3653;SDS011;70277;54.302;10.064;2023-09-12T04:19:59;37.70;;;20.73;;
3653;SDS011;70277;54.302;10.064;2023-09-12T04:22:26;43.67;;;22.55;;
3653;SDS011;70277;54.302;10.064;2023-09-12T04:24:52;43.47;;;22.60;;
3653;SDS011;70277;54.302;10.064;2023-09-12T04:27:18;43.22;;;22.30;;
3653;SDS011;70277;54.302;10.064;2023-09-12T04:29:45;45.38;;;24.92;;
3653;SDS011;70277;54.302;10.064;2023-09-12T04:32:11;40.25;;;23.25;;
3653;SDS011;70277;54.302;10.064;2023-09-12T04:34:38;41.28;;;23.05;;
3653;SDS011;70277;54.302;10.064;2023-09-12T04:37:05;43.85;;;23.70;;
3653;SDS011;70277;54.302;10.064;2023-09-12T04:39:32;36.88;;;22.38;;
3653;SDS011;70277;54.302;10.064;2023-09-12T04:41:59;39.38;;;22.70;;
3653;SDS011;70277;54.302;10.064;2023-09-12T04:44:25;40.42;;;22.70;;
3653;SDS011;70277;54.302;10.064;2023-09-12T04:46:52;46.53;;;23.33;;
3653;SDS011;70277;54.302;10.064;2023-09-12T04:49:18;41.72;;;24.13;;
3653;SDS011;70277;54.302;10.064;2023-09-12T04:51:45;48.90;;;24.48;;
3653;SDS011;70277;54.302;10.064;2023-09-12T04:54:11;43.65;;;21.98;;
3653;SDS011;70277;54.302;10.064;2023-09-12T04:56:38;44.80;;;24.80;;
3653;SDS011;70277;54.302;10.064;2023-09-12T04:59:04;43.78;;;24.08;;
3653;SDS011;70277;54.302;10.064;2023-09-12T05:01:32;47.50;;;24.23;;
3653;SDS011;70277;54.302;10.064;2023-09-12T05:03:59;47.13;;;25.63;;
3653;SDS011;70277;54.302;10.064;2023-09-12T05:06:26;40.08;;;21.77;;
3653;SDS011;70277;54.302;10.064;2023-09-12T05:08:52;54.30;;;26.08;;
3653;SDS011;70277;54.302;10.064;2023-09-12T05:11:19;51.05;;;25.20;;
3653;SDS011;70277;54.302;10.064;2023-09-12T05:13:45;51.22;;;25.90;;
3653;SDS011;70277;54.302;10.064;2023-09-12T05:16:12;58.08;;;28.48;;
3653;SDS011;70277;54.302;10.064;2023-09-12T05:18:38;51.53;;;26.35;;
3653;SDS011;70277;54.302;10.064;2023-09-12T05:21:05;58.63;;;28.25;;
3653;SDS011;70277;54.302;10.064;2023-09-12T05:23:31;61.03;;;30.95;;
3653;SDS011;70277;54.302;10.064;2023-09-12T05:25:58;67.30;;;29.60;;
3653;SDS011;70277;54.302;10.064;2023-09-12T05:28:25;66.47;;;29.15;;
3653;SDS011;70277;54.302;10.064;2023-09-12T05:30:52;71.03;;;30.90;;
3653;SDS011;70277;54.302;10.064;2023-09-12T05:33:19;60.88;;;30.58;;
3653;SDS011;70277;54.302;10.064;2023-09-12T05:35:45;59.20;;;30.20;;
3653;SDS011;70277;54.302;10.064;2023-09-12T05:38:12;64.47;;;30.20;;
3653;SDS011;70277;54.302;10.064;2023-09-12T05:40:38;68.55;;;29.73;;
3653;SDS011;70277;54.302;10.064;2023-09-12T05:43:05;76.00;;;32.55;;
3653;SDS011;70277;54.302;10.064;2023-09-12T05:45:31;70.10;;;31.25;;
3653;SDS011;70277;54.302;10.064;2023-09-12T05:47:59;64.47;;;30.85;;
3653;SDS011;70277;54.302;10.064;2023-09-12T05:50:26;61.00;;;30.20;;
3653;SDS011;70277;54.302;10.064;2023-09-12T05:52:52;61.58;;;29.27;;
3653;SDS011;70277;54.302;10.064;2023-09-12T05:55:19;67.72;;;33.38;;
3653;SDS011;70277;54.302;10.064;2023-09-12T05:57:46;66.38;;;32.00;;
3653;SDS011;70277;54.302;10.064;2023-09-12T06:00:14;72.22;;;32.78;;
3653;SDS011;70277;54.302;10.064;2023-09-12T06:02:41;66.55;;;33.63;;
3653;SDS011;70277;54.302;10.064;2023-09-12T06:05:08;67.95;;;33.25;;
3653;SDS011;70277;54.302;10.064;2023-09-12T06:07:35;67.15;;;34.45;;
3653;SDS011;70277;54.302;10.064;2023-09-12T06:10:02;70.45;;;35.10;;
3653;SDS011;70277;54.302;10.064;2023-09-12T06:12:29;74.00;;;33.67;;
3653;SDS011;70277;54.302;10.064;2023-09-12T06:14:56;72.57;;;35.58;;
3653;SDS011;70277;54.302;10.064;2023-09-12T06:17:23;66.68;;;33.58;;
3653;SDS011;70277;54.302;10.064;2023-09-12T06:19:49;74.38;;;33.95;;
3653;SDS011;70277;54.302;10.064;2023-09-12T06:22:15;74.88;;;35.72;;
3653;SDS011;70277;54.302;10.064;2023-09-12T06:24:43;73.38;;;34.85;;
3653;SDS011;70277;54.302;10.064;2023-09-12T06:27:10;67.85;;;34.30;;
3653;SDS011;70277;54.302;10.064;2023-09-12T06:29:48;71.63;;;34.25;;
3653;SDS011;70277;54.302;10.064;2023-09-12T06:32:16;67.60;;;33.10;;
3653;SDS011;70277;54.302;10.064;2023-09-12T06:34:43;63.03;;;31.25;;
3653;SDS011;70277;54.302;10.064;2023-09-12T06:37:10;61.03;;;30.40;;
3653;SDS011;70277;54.302;10.064;2023-09-12T06:39:37;56.67;;;29.52;;
3653;SDS011;70277;54.302;10.064;2023-09-12T06:42:04;64.63;;;31.33;;
3653;SDS011;70277;54.302;10.064;2023-09-12T06:44:31;68.22;;;32.15;;
3653;SDS011;70277;54.302;10.064;2023-09-12T06:46:57;59.65;;;30.23;;
3653;SDS011;70277;54.302;10.064;2023-09-12T06:49:24;56.60;;;28.65;;
3653;SDS011;70277;54.302;10.064;2023-09-12T06:51:50;60.72;;;29.15;;
3653;SDS011;70277;54.302;10.064;2023-09-12T06:54:17;52.50;;;29.50;;
3653;SDS011;70277;54.302;10.064;2023-09-12T06:56:43;55.42;;;28.40;;
3653;SDS011;70277;54.302;10.064;2023-09-12T06:59:10;50.35;;;28.52;;
3653;SDS011;70277;54.302;10.064;2023-09-12T07:01:37;58.15;;;29.95;;
3653;SDS011;70277;54.302;10.064;2023-09-12T07:04:04;54.08;;;29.02;;
3653;SDS011;70277;54.302;10.064;2023-09-12T07:06:30;56.88;;;29.58;;
3653;SDS011;70277;54.302;10.064;2023-09-12T07:08:59;53.03;;;29.30;;
3653;SDS011;70277;54.302;10.064;2023-09-12T07:11:25;58.15;;;28.73;;
3653;SDS011;70277;54.302;10.064;2023-09-12T07:13:52;52.50;;;28.30;;
3653;SDS011;70277;54.302;10.064;2023-09-12T07:16:18;49.85;;;26.73;;
3653;SDS011;70277;54.302;10.064;2023-09-12T07:18:47;44.65;;;27.08;;
3653;SDS011;70277;54.302;10.064;2023-09-12T07:21:15;48.30;;;26.58;;
3653;SDS011;70277;54.302;10.064;2023-09-12T07:23:41;43.83;;;27.13;;
3653;SDS011;70277;54.302;10.064;2023-09-12T07:26:12;53.50;;;26.45;;
3653;SDS011;70277;54.302;10.064;2023-09-12T07:28:40;44.00;;;24.60;;
3653;SDS011;70277;54.302;10.064;2023-09-12T07:31:06;41.78;;;24.05;;
3653;SDS011;70277;54.302;10.064;2023-09-12T07:33:33;43.10;;;23.52;;
3653;SDS011;70277;54.302;10.064;2023-09-12T07:36:00;42.10;;;23.58;;
3653;SDS011;70277;54.302;10.064;2023-09-12T07:38:29;39.47;;;22.48;;
3653;SDS011;70277;54.302;10.064;2023-09-12T07:40:57;37.78;;;23.10;;
3653;SDS011;70277;54.302;10.064;2023-09-12T07:43:26;35.78;;;22.33;;
3653;SDS011;70277;54.302;10.064;2023-09-12T07:45:58;45.28;;;22.83;;
3653;SDS011;70277;54.302;10.064;2023-09-12T07:48:25;47.13;;;23.40;;
3653;SDS011;70277;54.302;10.064;2023-09-12T07:50:52;40.38;;;21.38;;
3653;SDS011;70277;54.302;10.064;2023-09-12T07:53:18;36.78;;;21.10;;
3653;SDS011;70277;54.302;10.064;2023-09-12T07:55:45;39.72;;;21.92;;
3653;SDS011;70277;54.302;10.064;2023-09-12T07:58:13;38.50;;;22.25;;
3653;SDS011;70277;54.302;10.064;2023-09-12T08:00:40;33.70;;;21.70;;
3653;SDS011;70277;54.302;10.064;2023-09-12T08:03:08;35.58;;;20.40;;
3653;SDS011;70277;54.302;10.064;2023-09-12T08:05:35;33.33;;;18.92;;
3653;SDS011;70277;54.302;10.064;2023-09-12T08:08:02;33.78;;;18.90;;
3653;SDS011;70277;54.302;10.064;2023-09-12T08:10:29;35.30;;;20.48;;
3653;SDS011;70277;54.302;10.064;2023-09-12T08:12:55;33.58;;;20.17;;
3653;SDS011;70277;54.302;10.064;2023-09-12T08:15:22;34.00;;;19.90;;
3653;SDS011;70277;54.302;10.064;2023-09-12T08:17:49;34.05;;;19.50;;
3653;SDS011;70277;54.302;10.064;2023-09-12T08:20:19;32.33;;;21.48;;
3653;SDS011;70277;54.302;10.064;2023-09-12T08:22:46;33.22;;;21.52;;
3653;SDS011;70277;54.302;10.064;2023-09-12T08:25:13;35.08;;;20.80;;
3653;SDS011;70277;54.302;10.064;2023-09-12T08:27:40;31.85;;;21.27;;
3653;SDS011;70277;54.302;10.064;2023-09-12T08:30:08;30.23;;;20.58;;
3653;SDS011;70277;54.302;10.064;2023-09-12T08:32:36;30.80;;;19.55;;
3653;SDS011;70277;54.302;10.064;2023-09-12T08:35:08;29.48;;;17.60;;
3653;SDS011;70277;54.302;10.064;2023-09-12T08:37:36;26.83;;;16.38;;
3653;SDS011;70277;54.302;10.064;2023-09-12T08:40:03;27.20;;;15.43;;
3653;SDS011;70277;54.302;10.064;2023-09-12T08:42:33;24.27;;;16.35;;
3653;SDS011;70277;54.302;10.064;2023-09-12T08:45:08;23.90;;;14.90;;
3653;SDS011;70277;54.302;10.064;2023-09-12T08:47:40;22.40;;;14.30;;
3653;SDS011;70277;54.302;10.064;2023-09-12T08:50:12;20.88;;;13.15;;
3653;SDS011;70277;54.302;10.064;2023-09-12T08:52:41;20.90;;;13.48;;
3653;SDS011;70277;54.302;10.064;2023-09-12T08:55:25;17.02;;;12.00;;
3653;SDS011;70277;54.302;10.064;2023-09-12T08:57:52;23.23;;;14.20;;
3653;SDS011;70277;54.302;10.064;2023-09-12T09:00:20;18.80;;;13.10;;
3653;SDS011;70277;54.302;10.064;2023-09-12T09:02:49;17.23;;;11.82;;
3653;SDS011;70277;54.302;10.064;2023-09-12T09:05:16;17.65;;;12.90;;
3653;SDS011;70277;54.302;10.064;2023-09-12T09:07:48;16.63;;;13.50;;
3653;SDS011;70277;54.302;10.064;2023-09-12T09:10:16;20.80;;;13.70;;
3653;SDS011;70277;54.302;10.064;2023-09-12T09:12:50;17.15;;;12.10;;
3653;SDS011;70277;54.302;10.064;2023-09-12T09:15:20;17.02;;;12.85;;
3653;SDS011;70277;54.302;10.064;2023-09-12T09:17:47;18.10;;;12.65;;
3653;SDS011;70277;54.302;10.064;2023-09-12T09:20:27;16.55;;;11.75;;
3653;SDS011;70277;54.302;10.064;2023-09-12T09:22:59;14.02;;;11.27;;
3653;SDS011;70277;54.302;10.064;2023-09-12T09:25:27;15.30;;;10.80;;
3653;SDS011;70277;54.302;10.064;2023-09-12T09:27:54;16.45;;;9.98;;
3653;SDS011;70277;54.302;10.064;2023-09-12T09:30:38;12.70;;;9.68;;
3653;SDS011;70277;54.302;10.064;2023-09-12T09:33:09;14.90;;;9.32;;
3653;SDS011;70277;54.302;10.064;2023-09-12T09:35:36;24.67;;;10.23;;
3653;SDS011;70277;54.302;10.064;2023-09-12T09:38:03;16.75;;;9.45;;
3653;SDS011;70277;54.302;10.064;2023-09-12T09:40:33;14.20;;;8.82;;
3653;SDS011;70277;54.302;10.064;2023-09-12T09:43:00;13.07;;;8.82;;
3653;SDS011;70277;54.302;10.064;2023-09-12T09:45:31;13.20;;;8.77;;
3653;SDS011;70277;54.302;10.064;2023-09-12T09:48:04;16.83;;;9.20;;
3653;SDS011;70277;54.302;10.064;2023-09-12T09:50:33;15.15;;;9.07;;
3653;SDS011;70277;54.302;10.064;2023-09-12T09:53:03;19.90;;;9.88;;
3653;SDS011;70277;54.302;10.064;2023-09-12T09:55:31;15.23;;;8.00;;
3653;SDS011;70277;54.302;10.064;2023-09-12T09:57:58;18.27;;;9.10;;
3653;SDS011;70277;54.302;10.064;2023-09-12T10:00:25;12.82;;;8.82;;
3653;SDS011;70277;54.302;10.064;2023-09-12T10:05:21;16.08;;;8.40;;
3653;SDS011;70277;54.302;10.064;2023-09-12T10:07:49;11.25;;;7.60;;
3653;SDS011;70277;54.302;10.064;2023-09-12T10:10:17;9.65;;;6.93;;
3653;SDS011;70277;54.302;10.064;2023-09-12T10:12:49;10.65;;;6.30;;
3653;SDS011;70277;54.302;10.064;2023-09-12T10:15:18;10.88;;;6.88;;
3653;SDS011;70277;54.302;10.064;2023-09-12T10:17:47;12.15;;;6.57;;
3653;SDS011;70277;54.302;10.064;2023-09-12T10:20:50;9.52;;;6.50;;
3653;SDS011;70277;54.302;10.064;2023-09-12T10:23:34;8.85;;;6.88;;
3653;SDS011;70277;54.302;10.064;2023-09-12T10:26:12;10.00;;;6.35;;
3653;SDS011;70277;54.302;10.064;2023-09-12T10:28:42;8.75;;;6.50;;
3653;SDS011;70277;54.302;10.064;2023-09-12T10:31:11;11.13;;;6.25;;
3653;SDS011;70277;54.302;10.064;2023-09-12T10:33:38;5.78;;;5.20;;
3653;SDS011;70277;54.302;10.064;2023-09-12T10:36:06;9.93;;;5.32;;
3653;SDS011;70277;54.302;10.064;2023-09-12T10:38:44;8.80;;;5.43;;
3653;SDS011;70277;54.302;10.064;2023-09-12T10:41:14;7.20;;;5.20;;
3653;SDS011;70277;54.302;10.064;2023-09-12T10:43:42;5.95;;;4.90;;
3653;SDS011;70277;54.302;10.064;2023-09-12T10:46:14;9.70;;;5.95;;
3653;SDS011;70277;54.302;10.064;2023-09-12T10:48:40;7.18;;;5.28;;
3653;SDS011;70277;54.302;10.064;2023-09-12T10:51:07;8.32;;;5.70;;
3653;SDS011;70277;54.302;10.064;2023-09-12T10:53:36;8.50;;;5.22;;
3653;SDS011;70277;54.302;10.064;2023-09-12T11:01:31;7.22;;;5.25;;
3653;SDS011;70277;54.302;10.064;2023-09-12T11:03:59;9.27;;;5.47;;
3653;SDS011;70277;54.302;10.064;2023-09-12T11:06:54;9.45;;;5.00;;
3653;SDS011;70277;54.302;10.064;2023-09-12T11:09:22;8.55;;;5.00;;
3653;SDS011;70277;54.302;10.064;2023-09-12T11:14:24;8.73;;;4.20;;
3653;SDS011;70277;54.302;10.064;2023-09-12T11:19:47;12.80;;;4.70;;
3653;SDS011;70277;54.302;10.064;2023-09-12T11:22:21;11.93;;;5.18;;
3653;SDS011;70277;54.302;10.064;2023-09-12T11:24:49;5.05;;;4.50;;
3653;SDS011;70277;54.302;10.064;2023-09-12T11:27:16;6.60;;;4.90;;
3653;SDS011;70277;54.302;10.064;2023-09-12T11:29:43;9.40;;;5.55;;
3653;SDS011;70277;54.302;10.064;2023-09-12T11:32:11;8.85;;;4.68;;
3653;SDS011;70277;54.302;10.064;2023-09-12T11:34:53;7.55;;;4.97;;
3653;SDS011;70277;54.302;10.064;2023-09-12T11:37:23;8.07;;;5.05;;
3653;SDS011;70277;54.302;10.064;2023-09-12T11:39:54;8.20;;;4.75;;
3653;SDS011;70277;54.302;10.064;2023-09-12T11:42:21;12.07;;;5.65;;
3653;SDS011;70277;54.302;10.064;2023-09-12T11:44:49;10.43;;;6.07;;
3653;SDS011;70277;54.302;10.064;2023-09-12T11:47:17;10.95;;;6.75;;
3653;SDS011;70277;54.302;10.064;2023-09-12T11:49:43;12.18;;;7.70;;
3653;SDS011;70277;54.302;10.064;2023-09-12T11:52:11;13.52;;;8.48;;
3653;SDS011;70277;54.302;10.064;2023-09-12T11:54:43;11.88;;;8.02;;
3653;SDS011;70277;54.302;10.064;2023-09-12T11:57:14;12.25;;;8.27;;
3653;SDS011;70277;54.302;10.064;2023-09-12T11:59:43;14.40;;;9.13;;
3653;SDS011;70277;54.302;10.064;2023-09-12T12:02:18;10.65;;;8.05;;
3653;SDS011;70277;54.302;10.064;2023-09-12T12:04:44;14.23;;;7.55;;
3653;SDS011;70277;54.302;10.064;2023-09-12T12:07:12;11.35;;;7.75;;
3653;SDS011;70277;54.302;10.064;2023-09-12T12:09:39;11.68;;;7.65;;
3653;SDS011;70277;54.302;10.064;2023-09-12T12:12:12;11.15;;;8.30;;
3653;SDS011;70277;54.302;10.064;2023-09-12T12:14:40;13.70;;;7.57;;
3653;SDS011;70277;54.302;10.064;2023-09-12T12:17:10;15.07;;;7.15;;
3653;SDS011;70277;54.302;10.064;2023-09-12T12:19:38;14.50;;;7.68;;
3653;SDS011;70277;54.302;10.064;2023-09-12T12:22:06;13.18;;;7.82;;
3653;SDS011;70277;54.302;10.064;2023-09-12T12:24:37;10.02;;;7.97;;
3653;SDS011;70277;54.302;10.064;2023-09-12T12:27:05;10.48;;;8.20;;
3653;SDS011;70277;54.302;10.064;2023-09-12T12:29:34;9.95;;;7.55;;
3653;SDS011;70277;54.302;10.064;2023-09-12T12:32:02;11.77;;;8.93;;
3653;SDS011;70277;54.302;10.064;2023-09-12T12:34:29;12.32;;;9.55;;
3653;SDS011;70277;54.302;10.064;2023-09-12T12:37:15;15.68;;;8.45;;
3653;SDS011;70277;54.302;10.064;2023-09-12T12:39:42;10.48;;;7.35;;
3653;SDS011;70277;54.302;10.064;2023-09-12T12:42:09;17.25;;;8.50;;
3653;SDS011;70277;54.302;10.064;2023-09-12T12:44:36;13.63;;;8.32;;
3653;SDS011;70277;54.302;10.064;2023-09-12T12:47:06;9.70;;;7.07;;
3653;SDS011;70277;54.302;10.064;2023-09-12T12:49:37;12.57;;;8.13;;
3653;SDS011;70277;54.302;10.064;2023-09-12T12:52:05;14.68;;;8.43;;
3653;SDS011;70277;54.302;10.064;2023-09-12T12:54:35;17.63;;;10.35;;
3653;SDS011;70277;54.302;10.064;2023-09-12T12:57:02;16.48;;;9.68;;
3653;SDS011;70277;54.302;10.064;2023-09-12T12:59:28;15.38;;;8.85;;
3653;SDS011;70277;54.302;10.064;2023-09-12T13:02:02;13.05;;;9.52;;
3653;SDS011;70277;54.302;10.064;2023-09-12T13:04:35;16.20;;;10.07;;
3653;SDS011;70277;54.302;10.064;2023-09-12T13:07:03;19.90;;;9.90;;
3653;SDS011;70277;54.302;10.064;2023-09-12T13:09:30;11.60;;;9.70;;
3653;SDS011;70277;54.302;10.064;2023-09-12T13:11:58;13.30;;;9.43;;
3653;SDS011;70277;54.302;10.064;2023-09-12T13:14:26;14.45;;;8.80;;
3653;SDS011;70277;54.302;10.064;2023-09-12T13:16:57;13.68;;;10.13;;
3653;SDS011;70277;54.302;10.064;2023-09-12T13:19:25;16.00;;;10.38;;
3653;SDS011;70277;54.302;10.064;2023-09-12T13:21:52;16.13;;;9.32;;
3653;SDS011;70277;54.302;10.064;2023-09-12T13:24:18;23.23;;;10.25;;
3653;SDS011;70277;54.302;10.064;2023-09-12T13:26:45;13.50;;;9.57;;
3653;SDS011;70277;54.302;10.064;2023-09-12T13:29:12;15.82;;;10.95;;
3653;SDS011;70277;54.302;10.064;2023-09-12T13:31:38;13.63;;;9.48;;
3653;SDS011;70277;54.302;10.064;2023-09-12T13:34:05;15.45;;;9.63;;
3653;SDS011;70277;54.302;10.064;2023-09-12T13:36:31;14.57;;;9.30;;
3653;SDS011;70277;54.302;10.064;2023-09-12T13:38:58;16.88;;;8.50;;
3653;SDS011;70277;54.302;10.064;2023-09-12T13:41:24;19.20;;;7.57;;
3653;SDS011;70277;54.302;10.064;2023-09-12T13:43:52;13.45;;;8.63;;
3653;SDS011;70277;54.302;10.064;2023-09-12T13:46:18;13.77;;;8.43;;
3653;SDS011;70277;54.302;10.064;2023-09-12T13:48:45;14.35;;;8.60;;
3653;SDS011;70277;54.302;10.064;2023-09-12T13:51:14;13.55;;;9.57;;
3653;SDS011;70277;54.302;10.064;2023-09-12T13:53:40;12.35;;;9.77;;
3653;SDS011;70277;54.302;10.064;2023-09-12T13:56:07;12.23;;;7.78;;
3653;SDS011;70277;54.302;10.064;2023-09-12T13:58:34;13.02;;;8.77;;
3653;SDS011;70277;54.302;10.064;2023-09-12T14:01:10;20.52;;;8.75;;
3653;SDS011;70277;54.302;10.064;2023-09-12T14:03:43;12.07;;;8.45;;
3653;SDS011;70277;54.302;10.064;2023-09-12T14:06:10;11.57;;;8.18;;
3653;SDS011;70277;54.302;10.064;2023-09-12T14:08:37;10.90;;;8.40;;
3653;SDS011;70277;54.302;10.064;2023-09-12T14:11:03;15.02;;;7.85;;
3653;SDS011;70277;54.302;10.064;2023-09-12T14:13:33;14.73;;;7.97;;
3653;SDS011;70277;54.302;10.064;2023-09-12T14:16:00;12.88;;;8.88;;
3653;SDS011;70277;54.302;10.064;2023-09-12T14:18:27;11.75;;;7.85;;
3653;SDS011;70277;54.302;10.064;2023-09-12T14:20:56;13.52;;;7.72;;
3653;SDS011;70277;54.302;10.064;2023-09-12T14:23:24;8.77;;;6.97;;
3653;SDS011;70277;54.302;10.064;2023-09-12T14:25:51;10.60;;;7.70;;
3653;SDS011;70277;54.302;10.064;2023-09-12T14:28:19;10.68;;;6.43;;
3653;SDS011;70277;54.302;10.064;2023-09-12T14:30:47;12.75;;;6.85;;
3653;SDS011;70277;54.302;10.064;2023-09-12T14:33:15;10.13;;;6.13;;
3653;SDS011;70277;54.302;10.064;2023-09-12T14:35:44;11.98;;;7.22;;
3653;SDS011;70277;54.302;10.064;2023-09-12T14:38:11;11.00;;;6.35;;
3653;SDS011;70277;54.302;10.064;2023-09-12T14:40:38;12.48;;;6.43;;
3653;SDS011;70277;54.302;10.064;2023-09-12T14:43:09;9.57;;;6.30;;
3653;SDS011;70277;54.302;10.064;2023-09-12T14:45:35;11.18;;;7.15;;
3653;SDS011;70277;54.302;10.064;2023-09-12T14:48:02;14.57;;;6.53;;
3653;SDS011;70277;54.302;10.064;2023-09-12T14:50:29;8.73;;;6.43;;